createdAt,value
2023-03-17T00:00:53.531Z,95182.00
2023-03-17T00:01:53.584Z,95186.00
2023-03-17T00:02:53.709Z,95184.00
2023-03-17T00:03:53.735Z,95184.00
2023-03-17T00:04:53.693Z,95188.00
2023-03-17T00:05:53.713Z,95188.00
2023-03-17T00:06:53.773Z,95186.00
2023-03-17T00:07:53.785Z,95180.00
2023-03-17T00:08:53.813Z,95177.00
2023-03-17T00:09:53.837Z,95173.00
2023-03-17T00:10:53.893Z,95171.00
2023-03-17T00:11:53.936Z,95175.00
2023-03-17T00:12:53.947Z,95177.00
2023-03-17T00:13:54.017Z,95180.00
2023-03-17T00:14:54.044Z,95178.00
2023-03-17T00:15:54.069Z,95175.00
2023-03-17T00:16:54.120Z,95171.00
2023-03-17T00:17:54.152Z,95171.00
2023-03-17T00:18:54.214Z,95167.00
2023-03-17T00:19:54.224Z,95163.00
2023-03-17T00:20:54.251Z,95159.00
2023-03-17T00:21:54.293Z,95159.00
2023-03-17T00:22:54.352Z,95161.00
2023-03-17T00:23:54.377Z,95159.00
2023-03-17T00:24:54.417Z,95159.00
2023-03-17T00:25:54.523Z,95161.00
2023-03-17T00:26:54.482Z,95159.00
2023-03-17T00:27:54.521Z,95159.00
2023-03-17T00:28:54.556Z,95161.00
2023-03-17T00:29:54.607Z,95161.00
2023-03-17T00:30:54.727Z,95157.00
2023-03-17T00:31:54.620Z,95159.00
2023-03-17T00:32:54.735Z,95161.00
2023-03-17T00:33:54.702Z,95159.00
2023-03-17T00:34:54.741Z,95159.00
2023-03-17T00:35:54.834Z,95159.00
2023-03-17T00:36:54.802Z,95159.00
2023-03-17T00:37:54.850Z,95151.00
2023-03-17T00:38:54.857Z,95147.00
2023-03-17T00:39:54.924Z,95147.00
2023-03-17T00:40:54.979Z,95147.00
2023-03-17T00:41:55.828Z,95139.00
2023-03-17T00:42:55.031Z,95147.00
2023-03-17T00:43:55.057Z,95147.00
2023-03-17T00:44:55.099Z,95137.00
2023-03-17T00:45:55.132Z,95151.00
2023-03-17T00:46:55.203Z,95149.00
2023-03-17T00:47:55.201Z,95147.00
2023-03-17T00:48:55.243Z,95137.00
2023-03-17T00:49:55.267Z,95131.00
2023-03-17T00:50:55.313Z,95129.00
2023-03-17T00:51:55.329Z,95129.00
2023-03-17T00:52:55.371Z,95131.00
2023-03-17T00:53:55.412Z,95133.00
2023-03-17T00:54:55.408Z,95131.00
2023-03-17T00:55:55.467Z,95135.00
2023-03-17T00:56:55.458Z,95135.00
2023-03-17T00:57:55.525Z,95133.00
2023-03-17T00:58:55.563Z,95129.00
2023-03-17T00:59:55.597Z,95124.00
2023-03-17T01:00:55.636Z,95122.00
2023-03-17T01:01:55.734Z,95124.00
2023-03-17T01:02:55.688Z,95120.00
2023-03-17T01:03:55.705Z,95125.00
2023-03-17T01:05:05.462Z,95124.00
2023-03-17T01:05:56.745Z,95129.00
2023-03-17T01:06:55.768Z,95129.00
2023-03-17T01:07:55.755Z,95129.00
2023-03-17T01:08:55.769Z,95124.00
2023-03-17T01:09:55.721Z,95122.00
2023-03-17T01:10:55.745Z,95116.00
2023-03-17T01:11:55.881Z,95112.00
2023-03-17T01:12:55.697Z,95112.00
2023-03-17T01:13:55.706Z,95118.00
2023-03-17T01:14:55.690Z,95124.00
2023-03-17T01:15:55.765Z,95127.00
2023-03-17T01:16:55.679Z,95131.00
2023-03-17T01:17:55.688Z,95131.00
2023-03-17T01:18:55.778Z,95133.00
2023-03-17T01:19:55.652Z,95129.00
2023-03-17T01:20:55.666Z,95125.00
2023-03-17T01:21:55.649Z,95124.00
2023-03-17T01:22:55.703Z,95124.00
2023-03-17T01:23:55.713Z,95120.00
2023-03-17T01:24:55.782Z,95125.00
2023-03-17T01:25:55.871Z,95129.00
2023-03-17T01:26:55.846Z,95131.00
2023-03-17T01:27:55.823Z,95131.00
2023-03-17T01:28:55.871Z,95131.00
2023-03-17T01:29:55.929Z,95129.00
2023-03-17T01:30:55.926Z,95127.00
2023-03-17T01:31:55.992Z,95129.00
2023-03-17T01:32:56.015Z,95125.00
2023-03-17T01:33:56.048Z,95125.00
2023-03-17T01:34:56.090Z,95124.00
2023-03-17T01:35:56.163Z,95124.00
2023-03-17T01:36:56.176Z,95125.00
2023-03-17T01:37:56.177Z,95127.00
2023-03-17T01:38:56.221Z,95124.00
2023-03-17T01:39:56.262Z,95127.00
2023-03-17T01:40:56.276Z,95129.00
2023-03-17T01:41:56.313Z,95129.00
2023-03-17T01:42:56.358Z,95124.00
2023-03-17T01:43:56.380Z,95118.00
2023-03-17T01:44:56.390Z,95114.00
2023-03-17T01:45:56.555Z,95112.00
2023-03-17T01:46:56.454Z,95114.00
2023-03-17T01:47:56.470Z,95118.00
2023-03-17T01:48:56.480Z,95120.00
2023-03-17T01:49:56.480Z,95122.00
2023-03-17T01:50:56.518Z,95120.00
2023-03-17T01:51:56.515Z,95120.00
2023-03-17T01:52:56.516Z,95120.00
2023-03-17T01:53:56.526Z,95114.00
2023-03-17T01:54:56.540Z,95114.00
2023-03-17T01:55:56.541Z,95114.00
2023-03-17T01:56:56.559Z,95116.00
2023-03-17T01:57:56.555Z,95112.00
2023-03-17T01:58:56.579Z,95114.00
2023-03-17T01:59:56.533Z,95114.00
2023-03-17T02:00:56.604Z,95116.00
2023-03-17T02:01:56.622Z,95114.00
2023-03-17T02:02:56.708Z,95110.00
2023-03-17T02:03:56.762Z,95112.00
2023-03-17T02:04:56.773Z,95106.00
2023-03-17T02:05:56.769Z,95104.00
2023-03-17T02:06:58.888Z,95104.00
2023-03-17T02:07:56.895Z,95100.00
2023-03-17T02:08:56.963Z,95100.00
2023-03-17T02:09:57.060Z,95098.00
2023-03-17T02:10:57.048Z,95104.00
2023-03-17T02:11:57.158Z,95096.00
2023-03-17T02:12:57.192Z,95094.00
2023-03-17T02:13:57.264Z,95092.00
2023-03-17T02:14:57.277Z,95090.00
2023-03-17T02:15:57.381Z,95092.00
2023-03-17T02:16:57.570Z,95094.00
2023-03-17T02:17:57.423Z,95094.00
2023-03-17T02:18:57.489Z,95094.00
2023-03-17T02:19:57.537Z,95094.00
2023-03-17T02:20:57.601Z,95092.00
2023-03-17T02:21:57.633Z,95094.00
2023-03-17T02:22:57.709Z,95094.00
2023-03-17T02:23:57.755Z,95098.00
2023-03-17T02:24:57.751Z,95096.00
2023-03-17T02:25:57.844Z,95096.00
2023-03-17T02:26:57.875Z,95090.00
2023-03-17T02:27:57.891Z,95090.00
2023-03-17T02:28:57.956Z,95092.00
2023-03-17T02:29:58.003Z,95088.00
2023-03-17T02:30:58.125Z,95098.00
2023-03-17T02:31:58.073Z,95100.00
2023-03-17T02:32:58.136Z,95102.00
2023-03-17T02:33:58.202Z,95098.00
2023-03-17T02:34:58.199Z,95096.00
2023-03-17T02:35:58.266Z,95098.00
2023-03-17T02:36:58.364Z,95100.00
2023-03-17T02:37:58.333Z,95104.00
2023-03-17T02:38:58.436Z,95106.00
2023-03-17T02:39:58.434Z,95102.00
2023-03-17T02:40:58.496Z,95096.00
2023-03-17T02:41:58.524Z,95090.00
2023-03-17T02:42:58.572Z,95082.00
2023-03-17T02:43:58.608Z,95080.00
2023-03-17T02:44:58.679Z,95084.00
2023-03-17T02:45:58.721Z,95086.00
2023-03-17T02:46:58.705Z,95090.00
2023-03-17T02:47:58.789Z,95094.00
2023-03-17T02:48:58.829Z,95092.00
2023-03-17T02:49:58.833Z,95090.00
2023-03-17T02:50:58.873Z,95088.00
2023-03-17T02:51:58.916Z,95082.00
2023-03-17T02:52:58.945Z,95078.00
2023-03-17T02:53:58.951Z,95080.00
2023-03-17T02:54:58.991Z,95084.00
2023-03-17T02:55:59.014Z,95088.00
2023-03-17T02:56:59.071Z,95092.00
2023-03-17T02:57:59.084Z,95094.00
2023-03-17T02:58:59.125Z,95090.00
2023-03-17T02:59:59.135Z,95086.00
2023-03-17T03:00:59.184Z,95084.00
2023-03-17T03:01:59.180Z,95082.00
2023-03-17T03:02:59.310Z,95080.00
2023-03-17T03:03:59.274Z,95086.00
2023-03-17T03:04:59.281Z,95090.00
2023-03-17T03:06:01.004Z,95086.00
2023-03-17T03:06:59.282Z,95086.00
2023-03-17T03:07:59.282Z,95086.00
2023-03-17T03:08:59.275Z,95086.00
2023-03-17T03:09:59.319Z,95086.00
2023-03-17T03:10:59.278Z,95080.00
2023-03-17T03:11:59.282Z,95077.00
2023-03-17T03:12:59.232Z,95080.00
2023-03-17T03:13:59.251Z,95080.00
2023-03-17T03:14:59.264Z,95086.00
2023-03-17T03:15:59.308Z,95092.00
2023-03-17T03:16:59.224Z,95092.00
2023-03-17T03:17:59.223Z,95090.00
2023-03-17T03:18:59.235Z,95086.00
2023-03-17T03:19:59.210Z,95084.00
2023-03-17T03:20:59.240Z,95082.00
2023-03-17T03:21:59.190Z,95082.00
2023-03-17T03:22:59.191Z,95084.00
2023-03-17T03:23:59.179Z,95088.00
2023-03-17T03:24:59.160Z,95084.00
2023-03-17T03:25:59.174Z,95086.00
2023-03-17T03:26:59.143Z,95088.00
2023-03-17T03:27:59.151Z,95086.00
2023-03-17T03:28:59.121Z,95090.00
2023-03-17T03:29:59.153Z,95092.00
2023-03-17T03:30:59.189Z,95092.00
2023-03-17T03:31:59.103Z,95096.00
2023-03-17T03:32:59.163Z,95096.00
2023-03-17T03:33:59.123Z,95102.00
2023-03-17T03:34:59.101Z,95104.00
2023-03-17T03:35:59.148Z,95102.00
2023-03-17T03:36:59.107Z,95100.00
2023-03-17T03:37:59.084Z,95100.00
2023-03-17T03:38:59.079Z,95094.00
2023-03-17T03:39:59.077Z,95088.00
2023-03-17T03:40:59.062Z,95084.00
2023-03-17T03:41:59.053Z,95082.00
2023-03-17T03:42:59.090Z,95084.00
2023-03-17T03:43:59.040Z,95084.00
2023-03-17T03:44:59.027Z,95088.00
2023-03-17T03:45:59.028Z,95094.00
2023-03-17T03:46:58.997Z,95096.00
2023-03-17T03:47:58.980Z,95100.00
2023-03-17T03:48:58.995Z,95106.00
2023-03-17T03:49:58.989Z,95102.00
2023-03-17T03:50:58.974Z,95104.00
2023-03-17T03:51:58.989Z,95104.00
2023-03-17T03:52:58.963Z,95102.00
2023-03-17T03:53:58.971Z,95100.00
2023-03-17T03:54:58.949Z,95094.00
2023-03-17T03:55:58.952Z,95090.00
2023-03-17T03:56:58.927Z,95084.00
2023-03-17T03:57:58.917Z,95086.00
2023-03-17T03:58:58.908Z,95090.00
2023-03-17T03:59:58.901Z,95092.00
2023-03-17T04:00:58.922Z,95094.00
2023-03-17T04:01:58.898Z,95092.00
2023-03-17T04:02:58.930Z,95088.00
2023-03-17T04:03:58.865Z,95086.00
2023-03-17T04:04:58.958Z,95082.00
2023-03-17T04:05:58.852Z,95080.00
2023-03-17T04:06:58.876Z,95077.00
2023-03-17T04:07:58.833Z,95077.00
2023-03-17T04:08:58.810Z,95078.00
2023-03-17T04:09:58.812Z,95080.00
2023-03-17T04:10:58.893Z,95086.00
2023-03-17T04:11:58.800Z,95090.00
2023-03-17T04:12:58.801Z,95088.00
2023-03-17T04:13:58.777Z,95092.00
2023-03-17T04:14:58.807Z,95090.00
2023-03-17T04:15:58.819Z,95090.00
2023-03-17T04:16:58.770Z,95088.00
2023-03-17T04:17:58.759Z,95092.00
2023-03-17T04:18:58.808Z,95088.00
2023-03-17T04:19:58.768Z,95084.00
2023-03-17T04:20:58.787Z,95078.00
2023-03-17T04:21:58.776Z,95073.00
2023-03-17T04:22:58.741Z,95069.00
2023-03-17T04:23:58.701Z,95071.00
2023-03-17T04:24:58.733Z,95069.00
2023-03-17T04:25:58.713Z,95071.00
2023-03-17T04:26:58.698Z,95071.00
2023-03-17T04:27:58.704Z,95073.00
2023-03-17T04:28:58.725Z,95075.00
2023-03-17T04:29:58.669Z,95071.00
2023-03-17T04:30:58.676Z,95069.00
2023-03-17T04:31:58.774Z,95069.00
2023-03-17T04:32:58.777Z,95063.00
2023-03-17T04:33:58.752Z,95061.00
2023-03-17T04:34:58.780Z,95057.00
2023-03-17T04:35:58.874Z,95057.00
2023-03-17T04:36:58.829Z,95061.00
2023-03-17T04:37:58.871Z,95067.00
2023-03-17T04:38:58.917Z,95071.00
2023-03-17T04:39:58.901Z,95069.00
2023-03-17T04:40:58.948Z,95077.00
2023-03-17T04:41:59.019Z,95071.00
2023-03-17T04:42:59.023Z,95067.00
2023-03-17T04:43:59.044Z,95067.00
2023-03-17T04:44:59.112Z,95061.00
2023-03-17T04:45:59.182Z,95061.00
2023-03-17T04:46:59.153Z,95061.00
2023-03-17T04:47:59.206Z,95063.00
2023-03-17T04:48:59.215Z,95059.00
2023-03-17T04:49:59.262Z,95057.00
2023-03-17T04:50:59.289Z,95057.00
2023-03-17T04:51:59.340Z,95053.00
2023-03-17T04:52:59.392Z,95051.00
2023-03-17T04:53:59.425Z,95051.00
2023-03-17T04:54:59.444Z,95051.00
2023-03-17T04:55:59.481Z,95053.00
2023-03-17T04:56:59.514Z,95057.00
2023-03-17T04:57:59.577Z,95059.00
2023-03-17T04:58:59.604Z,95063.00
2023-03-17T04:59:59.615Z,95063.00
2023-03-17T05:00:59.726Z,95065.00
2023-03-17T05:01:59.717Z,95063.00
2023-03-17T05:02:59.726Z,95063.00
2023-03-17T05:03:59.784Z,95061.00
2023-03-17T05:04:59.809Z,95059.00
2023-03-17T05:05:59.856Z,95057.00
2023-03-17T05:06:59.901Z,95053.00
2023-03-17T05:07:59.964Z,95055.00
2023-03-17T05:08:59.984Z,95055.00
2023-03-17T05:10:00.001Z,95055.00
2023-03-17T05:11:00.035Z,95057.00
2023-03-17T05:12:00.083Z,95053.00
2023-03-17T05:13:00.147Z,95055.00
2023-03-17T05:14:00.179Z,95055.00
2023-03-17T05:15:00.221Z,95057.00
2023-03-17T05:16:00.225Z,95057.00
2023-03-17T05:17:00.259Z,95059.00
2023-03-17T05:18:02.279Z,95065.00
2023-03-17T05:19:00.312Z,95063.00
2023-03-17T05:20:00.950Z,95067.00
2023-03-17T05:21:00.302Z,95063.00
2023-03-17T05:22:00.303Z,95063.00
2023-03-17T05:23:00.305Z,95061.00
2023-03-17T05:24:00.288Z,95061.00
2023-03-17T05:25:00.295Z,95059.00
2023-03-17T05:26:00.262Z,95063.00
2023-03-17T05:27:00.249Z,95059.00
2023-03-17T05:28:00.245Z,95059.00
2023-03-17T05:29:00.263Z,95059.00
2023-03-17T05:30:00.219Z,95061.00
2023-03-17T05:31:00.316Z,95059.00
2023-03-17T05:32:00.238Z,95059.00
2023-03-17T05:33:00.238Z,95061.00
2023-03-17T05:34:00.224Z,95057.00
2023-03-17T05:35:00.191Z,95061.00
2023-03-17T05:36:00.262Z,95059.00
2023-03-17T05:37:00.205Z,95063.00
2023-03-17T05:38:00.177Z,95061.00
2023-03-17T05:39:00.167Z,95065.00
2023-03-17T05:40:00.182Z,95063.00
2023-03-17T05:41:00.186Z,95067.00
2023-03-17T05:42:00.170Z,95067.00
2023-03-17T05:43:00.169Z,95067.00
2023-03-17T05:44:00.144Z,95063.00
2023-03-17T05:45:00.147Z,95065.00
2023-03-17T05:46:00.223Z,95063.00
2023-03-17T05:47:00.113Z,95061.00
2023-03-17T05:48:00.099Z,95063.00
2023-03-17T05:49:00.120Z,95067.00
2023-03-17T05:50:00.146Z,95065.00
2023-03-17T05:51:00.114Z,95065.00
2023-03-17T05:52:00.124Z,95067.00
2023-03-17T05:53:00.062Z,95065.00
2023-03-17T05:54:00.113Z,95063.00
2023-03-17T05:55:00.116Z,95067.00
2023-03-17T05:56:00.102Z,95065.00
2023-03-17T05:57:00.087Z,95065.00
2023-03-17T05:58:00.053Z,95059.00
2023-03-17T05:59:00.041Z,95059.00
2023-03-17T06:00:00.098Z,95055.00
2023-03-17T06:01:07.533Z,95055.00
2023-03-17T06:02:00.071Z,95053.00
2023-03-17T06:03:00.043Z,95055.00
2023-03-17T06:04:00.001Z,95055.00
2023-03-17T06:05:00.016Z,95053.00
2023-03-17T06:06:00.015Z,95055.00
2023-03-17T06:06:59.994Z,95053.00
2023-03-17T06:07:59.967Z,95051.00
2023-03-17T06:08:59.980Z,95055.00
2023-03-17T06:09:59.939Z,95055.00
2023-03-17T06:10:59.981Z,95055.00
2023-03-17T06:11:59.959Z,95055.00
2023-03-17T06:13:01.525Z,95055.00
2023-03-17T06:13:59.962Z,95055.00
2023-03-17T06:14:59.943Z,95055.00
2023-03-17T06:15:59.954Z,95057.00
2023-03-17T06:16:59.921Z,95059.00
2023-03-17T06:17:59.916Z,95061.00
2023-03-17T06:18:59.916Z,95061.00
2023-03-17T06:19:59.920Z,95057.00
2023-03-17T06:20:59.900Z,95055.00
2023-03-17T06:21:59.900Z,95055.00
2023-03-17T06:23:04.281Z,95053.00
2023-03-17T06:24:00.868Z,95053.00
2023-03-17T06:24:59.853Z,95055.00
2023-03-17T06:25:59.866Z,95055.00
2023-03-17T06:26:59.861Z,95057.00
2023-03-17T06:27:59.849Z,95059.00
2023-03-17T06:28:59.837Z,95059.00
2023-03-17T06:29:59.845Z,95061.00
2023-03-17T06:30:59.865Z,95061.00
2023-03-17T06:32:17.083Z,95055.00
2023-03-17T06:33:00.783Z,95051.00
2023-03-17T06:33:59.760Z,95051.00
2023-03-17T06:34:59.772Z,95049.00
2023-03-17T06:35:59.830Z,95049.00
2023-03-17T06:36:59.763Z,95049.00
2023-03-17T06:37:59.790Z,95047.00
2023-03-17T06:38:59.761Z,95051.00
2023-03-17T06:39:59.752Z,95053.00
2023-03-17T06:40:59.814Z,95055.00
2023-03-17T06:42:00.025Z,95053.00
2023-03-17T06:42:59.851Z,95055.00
2023-03-17T06:43:59.884Z,95049.00
2023-03-17T06:44:59.938Z,95049.00
2023-03-17T06:47:00.037Z,95047.00
2023-03-17T06:47:59.949Z,95041.00
2023-03-17T06:48:59.949Z,95043.00
2023-03-17T06:49:59.927Z,95037.00
2023-03-17T06:50:59.921Z,95041.00
2023-03-17T06:51:59.921Z,95043.00
2023-03-17T06:52:59.859Z,95039.00
2023-03-17T06:53:59.911Z,95041.00
2023-03-17T06:54:59.901Z,95045.00
2023-03-17T06:55:59.899Z,95043.00
2023-03-17T06:56:59.902Z,95047.00
2023-03-17T06:57:59.884Z,95047.00
2023-03-17T06:58:59.840Z,95047.00
2023-03-17T06:59:59.840Z,95047.00
2023-03-17T07:00:59.829Z,95045.00
2023-03-17T07:02:00.117Z,95045.00
2023-03-17T07:02:59.825Z,95045.00
2023-03-17T07:03:59.844Z,95047.00
2023-03-17T07:04:59.881Z,95045.00
2023-03-17T07:05:59.807Z,95049.00
2023-03-17T07:07:00.077Z,95045.00
2023-03-17T07:07:59.806Z,95045.00
2023-03-17T07:09:02.094Z,95045.00
2023-03-17T07:09:59.831Z,95047.00
2023-03-17T07:10:59.828Z,95047.00
2023-03-17T07:11:59.906Z,95045.00
2023-03-17T07:12:59.968Z,95045.00
2023-03-17T07:13:59.918Z,95043.00
2023-03-17T07:14:59.843Z,95041.00
2023-03-17T07:16:00.665Z,95041.00
2023-03-17T07:16:59.896Z,95039.00
2023-03-17T07:18:00.075Z,95037.00
2023-03-17T07:18:59.993Z,95041.00
2023-03-17T07:20:00.053Z,95045.00
2023-03-17T07:21:00.120Z,95047.00
2023-03-17T07:22:00.201Z,95043.00
2023-03-17T07:23:00.463Z,95043.00
2023-03-17T07:24:00.239Z,95039.00
2023-03-17T07:25:00.305Z,95039.00
2023-03-17T07:26:00.322Z,95035.00
2023-03-17T07:27:00.330Z,95035.00
2023-03-17T07:28:00.584Z,95029.00
2023-03-17T07:29:00.376Z,95031.00
2023-03-17T07:30:00.383Z,95035.00
2023-03-17T07:31:00.421Z,95037.00
2023-03-17T07:32:00.377Z,95039.00
2023-03-17T07:33:00.618Z,95043.00
2023-03-17T07:34:00.388Z,95043.00
2023-03-17T07:35:00.443Z,95043.00
2023-03-17T07:36:00.537Z,95045.00
2023-03-17T07:37:00.497Z,95039.00
2023-03-17T07:38:00.609Z,95039.00
2023-03-17T07:39:00.555Z,95039.00
2023-03-17T07:40:00.596Z,95037.00
2023-03-17T07:41:00.567Z,95039.00
2023-03-17T07:42:00.585Z,95039.00
2023-03-17T07:43:01.085Z,95039.00
2023-03-17T07:44:00.561Z,95033.00
2023-03-17T07:45:00.577Z,95035.00
2023-03-17T07:46:00.757Z,95039.00
2023-03-17T07:47:00.629Z,95035.00
2023-03-17T07:48:00.675Z,95035.00
2023-03-17T07:49:00.655Z,95031.00
2023-03-17T07:50:00.702Z,95029.00
2023-03-17T07:51:00.790Z,95027.00
2023-03-17T07:52:00.845Z,95025.00
2023-03-17T07:53:00.938Z,95023.00
2023-03-17T07:54:00.947Z,95023.00
2023-03-17T07:55:00.985Z,95022.00
2023-03-17T07:56:01.115Z,95022.00
2023-03-17T07:57:01.091Z,95023.00
2023-03-17T07:58:01.290Z,95022.00
2023-03-17T07:59:01.216Z,95022.00
2023-03-17T08:00:01.237Z,95023.00
2023-03-17T08:01:01.292Z,95022.00
2023-03-17T08:02:01.524Z,95027.00
2023-03-17T08:03:09.798Z,95025.00
2023-03-17T08:04:02.402Z,95025.00
2023-03-17T08:05:01.330Z,95025.00
2023-03-17T08:06:01.366Z,95023.00
2023-03-17T08:08:01.322Z,95016.00
2023-03-17T08:09:01.341Z,95018.00
2023-03-17T08:10:01.314Z,95014.00
2023-03-17T08:11:01.322Z,95014.00
2023-03-17T08:12:01.332Z,95010.00
2023-03-17T08:13:01.312Z,95014.00
2023-03-17T08:14:01.290Z,95014.00
2023-03-17T08:15:01.278Z,95008.00
2023-03-17T08:16:01.337Z,95010.00
2023-03-17T08:18:01.596Z,95008.00
2023-03-17T08:19:01.270Z,95006.00
2023-03-17T08:20:01.288Z,95006.00
2023-03-17T08:21:01.289Z,95000.00
2023-03-17T08:22:01.268Z,95004.00
2023-03-17T08:23:01.249Z,95002.00
2023-03-17T08:24:01.225Z,95000.00
2023-03-17T08:25:01.272Z,95002.00
2023-03-17T08:26:01.217Z,95002.00
2023-03-17T08:27:01.258Z,94998.00
2023-03-17T08:28:01.275Z,94998.00
2023-03-17T08:29:01.350Z,94998.00
2023-03-17T08:30:01.344Z,94994.00
2023-03-17T08:31:01.496Z,94992.00
2023-03-17T08:32:01.511Z,94988.00
2023-03-17T08:33:01.695Z,94992.00
2023-03-17T08:34:01.598Z,94994.00
2023-03-17T08:35:01.715Z,94990.00
2023-03-17T08:36:01.790Z,94992.00
2023-03-17T08:37:01.891Z,94986.00
2023-03-17T08:38:02.022Z,94990.00
2023-03-17T08:39:01.990Z,94990.00
2023-03-17T08:40:01.981Z,94984.00
2023-03-17T08:41:01.972Z,94986.00
2023-03-17T08:42:01.981Z,94976.00
2023-03-17T08:43:01.982Z,94975.00
2023-03-17T08:44:02.015Z,94969.00
2023-03-17T08:45:02.096Z,94965.00
2023-03-17T08:46:02.217Z,94963.00
2023-03-17T08:47:02.276Z,94961.00
2023-03-17T08:48:02.597Z,94957.00
2023-03-17T08:49:02.364Z,94957.00
2023-03-17T08:50:02.475Z,94957.00
2023-03-17T08:51:02.525Z,94953.00
2023-03-17T08:52:02.580Z,94955.00
2023-03-17T08:53:02.640Z,94953.00
2023-03-17T08:55:02.694Z,94947.00
2023-03-17T08:56:02.762Z,94947.00
2023-03-17T08:57:02.790Z,94943.00
2023-03-17T08:58:02.877Z,94943.00
2023-03-17T08:59:02.882Z,94943.00
2023-03-17T09:00:02.917Z,94945.00
2023-03-17T09:01:03.000Z,94941.00
2023-03-17T09:02:02.951Z,94937.00
2023-03-17T09:03:03.042Z,94941.00
2023-03-17T09:04:03.020Z,94935.00
2023-03-17T09:05:03.037Z,94933.00
2023-03-17T09:06:03.083Z,94933.00
2023-03-17T09:07:04.344Z,94931.00
2023-03-17T09:08:03.194Z,94929.00
2023-03-17T09:09:03.101Z,94929.00
2023-03-17T09:10:03.182Z,94928.00
2023-03-17T09:11:03.172Z,94928.00
2023-03-17T09:12:03.198Z,94926.00
2023-03-17T09:13:03.631Z,94926.00
2023-03-17T09:14:03.202Z,94920.00
2023-03-17T09:15:03.341Z,94920.00
2023-03-17T09:16:03.237Z,94918.00
2023-03-17T09:17:05.787Z,94914.00
2023-03-17T09:18:03.639Z,94908.00
2023-03-17T09:19:03.208Z,94906.00
2023-03-17T09:20:03.229Z,94902.00
2023-03-17T09:21:03.200Z,94902.00
2023-03-17T09:22:03.205Z,94902.00
2023-03-17T09:23:03.191Z,94902.00
2023-03-17T09:24:03.187Z,94902.00
2023-03-17T09:25:03.153Z,94896.00
2023-03-17T09:26:03.168Z,94894.00
2023-03-17T09:27:04.169Z,94882.00
2023-03-17T09:28:03.137Z,94882.00
2023-03-17T09:29:04.363Z,94880.00
2023-03-17T09:30:03.112Z,94882.00
2023-03-17T09:31:03.180Z,94882.00
2023-03-17T09:32:03.095Z,94890.00
2023-03-17T09:33:03.116Z,94878.00
2023-03-17T09:34:03.115Z,94876.00
2023-03-17T09:35:03.088Z,94873.00
2023-03-17T09:36:03.131Z,94869.00
2023-03-17T09:37:04.058Z,94865.00
2023-03-17T09:41:03.130Z,94865.00
2023-03-17T09:42:03.023Z,94859.00
2023-03-17T09:43:03.043Z,94863.00
2023-03-17T09:44:03.160Z,94865.00
2023-03-17T09:45:03.018Z,94863.00
2023-03-17T09:46:03.177Z,94861.00
2023-03-17T09:48:03.018Z,94863.00
2023-03-17T09:49:03.117Z,94863.00
2023-03-17T09:50:03.077Z,94861.00
2023-03-17T09:51:02.974Z,94863.00
2023-03-17T09:52:02.962Z,94859.00
2023-03-17T09:53:04.097Z,94861.00
2023-03-17T09:54:02.986Z,94861.00
2023-03-17T09:55:02.940Z,94867.00
2023-03-17T09:56:03.031Z,94863.00
2023-03-17T09:57:02.935Z,94865.00
2023-03-17T09:58:02.975Z,94857.00
2023-03-17T09:59:03.196Z,94855.00
2023-03-17T10:00:03.023Z,94847.00
2023-03-17T10:02:03.210Z,94849.00
2023-03-17T10:03:03.226Z,94845.00
2023-03-17T10:04:03.639Z,94841.00
2023-03-17T10:05:03.306Z,94837.00
2023-03-17T10:06:03.377Z,94835.00
2023-03-17T10:07:03.421Z,94835.00
2023-03-17T10:08:03.464Z,94833.00
2023-03-17T10:09:03.488Z,94833.00
2023-03-17T10:10:03.488Z,94828.00
2023-03-17T10:11:03.510Z,94828.00
2023-03-17T10:12:03.577Z,94824.00
2023-03-17T10:13:03.621Z,94822.00
2023-03-17T10:14:03.627Z,94820.00
2023-03-17T10:15:03.659Z,94824.00
2023-03-17T10:16:03.738Z,94824.00
2023-03-17T10:17:03.679Z,94822.00
2023-03-17T10:18:03.741Z,94816.00
2023-03-17T10:19:03.802Z,94818.00
2023-03-17T10:20:03.911Z,94816.00
2023-03-17T10:21:03.857Z,94814.00
2023-03-17T10:22:03.848Z,94810.00
2023-03-17T10:23:03.899Z,94810.00
2023-03-17T10:24:03.934Z,94806.00
2023-03-17T10:25:04.037Z,94806.00
2023-03-17T10:26:03.991Z,94806.00
2023-03-17T10:27:04.058Z,94804.00
2023-03-17T10:28:05.051Z,94802.00
2023-03-17T10:29:04.204Z,94802.00
2023-03-17T10:30:04.310Z,94798.00
2023-03-17T10:31:04.286Z,94800.00
2023-03-17T10:32:04.488Z,94796.00
2023-03-17T10:33:04.454Z,94798.00
2023-03-17T10:34:04.422Z,94796.00
2023-03-17T10:35:04.481Z,94796.00
2023-03-17T10:36:04.532Z,94788.00
2023-03-17T10:37:04.518Z,94786.00
2023-03-17T10:38:14.097Z,94784.00
2023-03-17T10:39:05.553Z,94784.00
2023-03-17T10:40:04.481Z,94782.00
2023-03-17T10:41:04.491Z,94782.00
2023-03-17T10:42:04.582Z,94782.00
2023-03-17T10:43:04.454Z,94781.00
2023-03-17T10:44:04.659Z,94777.00
2023-03-17T10:45:04.477Z,94777.00
2023-03-17T10:46:04.465Z,94779.00
2023-03-17T10:47:04.489Z,94773.00
2023-03-17T10:48:04.429Z,94775.00
2023-03-17T10:49:04.661Z,94771.00
2023-03-17T10:50:04.501Z,94775.00
2023-03-17T10:51:04.517Z,94777.00
2023-03-17T10:52:04.508Z,94773.00
2023-03-17T10:53:04.544Z,94773.00
2023-03-17T10:54:04.681Z,94767.00
2023-03-17T10:55:04.545Z,94757.00
2023-03-17T10:56:04.626Z,94751.00
2023-03-17T10:57:04.700Z,94751.00
2023-03-17T10:58:04.740Z,94747.00
2023-03-17T10:59:05.179Z,94745.00
2023-03-17T11:00:04.869Z,94745.00
2023-03-17T11:01:04.909Z,94745.00
2023-03-17T11:02:04.992Z,94741.00
2023-03-17T11:03:05.102Z,94739.00
2023-03-17T11:04:05.239Z,94741.00
2023-03-17T11:05:05.120Z,94735.00
2023-03-17T11:06:05.199Z,94739.00
2023-03-17T11:07:05.248Z,94739.00
2023-03-17T11:08:05.288Z,94743.00
2023-03-17T11:09:05.357Z,94741.00
2023-03-17T11:10:05.671Z,94735.00
2023-03-17T11:11:05.415Z,94734.00
2023-03-17T11:12:05.453Z,94734.00
2023-03-17T11:13:05.483Z,94732.00
2023-03-17T11:14:05.575Z,94728.00
2023-03-17T11:15:05.772Z,94730.00
2023-03-17T11:16:05.626Z,94728.00
2023-03-17T11:17:05.628Z,94722.00
2023-03-17T11:18:05.661Z,94722.00
2023-03-17T11:19:05.758Z,94722.00
2023-03-17T11:20:05.689Z,94720.00
2023-03-17T11:21:05.728Z,94714.00
2023-03-17T11:22:05.758Z,94714.00
2023-03-17T11:23:05.775Z,94712.00
2023-03-17T11:24:05.823Z,94712.00
2023-03-17T11:25:06.164Z,94710.00
2023-03-17T11:26:05.896Z,94706.00
2023-03-17T11:27:05.900Z,94706.00
2023-03-17T11:28:05.883Z,94704.00
2023-03-17T11:29:05.983Z,94700.00
2023-03-17T11:30:06.011Z,94698.00
2023-03-17T11:31:06.090Z,94698.00
2023-03-17T11:32:06.230Z,94694.00
2023-03-17T11:33:06.230Z,94692.00
2023-03-17T11:34:06.257Z,94690.00
2023-03-17T11:35:06.712Z,94688.00
2023-03-17T11:36:06.281Z,94686.00
2023-03-17T11:37:06.257Z,94684.00
2023-03-17T11:38:06.252Z,94681.00
2023-03-17T11:39:06.253Z,94679.00
2023-03-17T11:40:06.675Z,94677.00
2023-03-17T11:41:06.282Z,94673.00
2023-03-17T11:42:06.335Z,94677.00
2023-03-17T11:43:06.242Z,94675.00
2023-03-17T11:44:06.263Z,94671.00
2023-03-17T11:45:07.199Z,94667.00
2023-03-17T11:46:06.333Z,94661.00
2023-03-17T11:47:06.272Z,94665.00
2023-03-17T11:48:06.330Z,94669.00
2023-03-17T11:49:06.311Z,94667.00
2023-03-17T11:50:06.708Z,94667.00
2023-03-17T11:51:06.414Z,94665.00
2023-03-17T11:52:06.443Z,94665.00
2023-03-17T11:53:06.475Z,94669.00
2023-03-17T11:54:06.560Z,94667.00